createdAt,value
2018-08-18T00:00:36.460Z,14.20
2018-08-18T00:03:06.808Z,14.20
2018-08-18T00:05:35.949Z,14.20
2018-08-18T00:08:07.264Z,14.20
2018-08-18T00:10:37.060Z,14.10
2018-08-18T00:13:06.196Z,14.10
2018-08-18T00:15:38.834Z,14.10
2018-08-18T00:18:08.195Z,14.10
2018-08-18T00:20:37.545Z,14.10
2018-08-18T00:23:06.696Z,14.10
2018-08-18T00:25:35.891Z,14.10
2018-08-18T00:28:24.631Z,14.00
2018-08-18T00:30:54.090Z,13.90
2018-08-18T00:33:24.135Z,13.90
2018-08-18T00:35:53.656Z,13.90
2018-08-18T00:38:23.003Z,13.80
2018-08-18T00:40:52.926Z,13.80
2018-08-18T00:43:22.232Z,13.80
2018-08-18T00:45:51.379Z,13.70
2018-08-18T00:48:20.809Z,13.70
2018-08-18T00:50:50.003Z,13.70
2018-08-18T00:53:19.834Z,13.70
2018-08-18T00:55:49.330Z,13.60
2018-08-18T00:58:27.022Z,13.60
2018-08-18T01:01:01.555Z,13.60
2018-08-18T01:03:31.407Z,13.60
2018-08-18T01:06:16.411Z,13.50
2018-08-18T01:08:46.042Z,13.50
2018-08-18T01:11:16.130Z,13.50
2018-08-18T01:13:45.402Z,13.50
2018-08-18T01:16:15.223Z,13.50
2018-08-18T01:18:44.480Z,13.50
2018-08-18T01:21:14.060Z,13.40
2018-08-18T01:23:43.640Z,13.40
2018-08-18T01:26:12.781Z,13.40
2018-08-18T01:28:41.922Z,13.30
2018-08-18T01:31:17.945Z,13.30
2018-08-18T01:33:47.096Z,13.30
2018-08-18T01:36:16.461Z,13.30
2018-08-18T01:38:45.921Z,13.30
2018-08-18T01:41:20.004Z,13.30
2018-08-18T01:43:56.925Z,13.30
2018-08-18T01:46:28.206Z,13.30
2018-08-18T01:48:57.404Z,13.30
2018-08-18T01:51:26.595Z,13.30
2018-08-18T01:53:55.662Z,13.30
2018-08-18T01:56:24.955Z,13.20
2018-08-18T08:19:32.860Z,22.40
2018-08-18T19:26:12.456Z,21.00
2018-08-18T19:28:42.450Z,20.90
2018-08-18T19:31:11.631Z,20.90
2018-08-18T19:33:41.762Z,20.90
2018-08-18T21:31:00.037Z,19.30
2018-08-18T21:33:33.727Z,19.20
2018-08-18T21:36:03.814Z,19.20
2018-08-18T21:38:32.944Z,19.20
2018-08-18T21:41:02.173Z,19.30
2018-08-18T21:43:34.135Z,19.30
2018-08-18T21:46:03.380Z,19.30
2018-08-18T21:48:43.777Z,19.40
2018-08-18T21:51:12.980Z,19.40
2018-08-18T21:53:42.909Z,19.40
2018-08-18T21:56:12.189Z,19.40
2018-08-18T21:58:41.353Z,19.40
2018-08-18T22:01:16.706Z,19.40
2018-08-18T22:03:47.309Z,19.50
2018-08-18T22:06:16.581Z,19.50
2018-08-18T22:08:45.890Z,19.50
2018-08-18T22:11:17.251Z,19.50
2018-08-18T22:13:52.667Z,19.40
2018-08-18T22:16:22.613Z,19.40
2018-08-18T22:18:57.435Z,19.40
2018-08-18T22:21:28.891Z,19.30
2018-08-18T22:24:00.353Z,19.30
2018-08-18T22:26:29.959Z,19.30
2018-08-18T22:29:03.635Z,19.30
2018-08-18T22:31:33.351Z,19.30
2018-08-18T22:34:03.872Z,19.30
2018-08-18T22:36:35.568Z,19.30
2018-08-18T22:39:10.335Z,19.30
2018-08-18T22:41:44.197Z,19.30
2018-08-18T22:44:13.375Z,19.30
2018-08-18T22:46:42.505Z,19.30
2018-08-18T22:49:11.716Z,19.30
2018-08-18T22:51:41.084Z,19.30
2018-08-18T22:54:10.293Z,19.30
2018-08-18T22:56:40.391Z,19.30
2018-08-18T22:59:09.611Z,19.20
2018-08-18T23:01:39.517Z,19.20
2018-08-18T23:04:27.577Z,19.20
2018-08-18T23:06:57.596Z,19.20
2018-08-18T23:09:27.568Z,19.20
2018-08-18T23:11:59.801Z,19.20
2018-08-18T23:14:31.529Z,19.20
2018-08-18T23:17:01.015Z,19.20
2018-08-18T23:19:32.053Z,19.20
2018-08-18T23:22:01.658Z,19.10
2018-08-18T23:24:37.765Z,19.10
2018-08-18T23:27:07.190Z,19.00
2018-08-18T23:29:37.029Z,18.90
2018-08-18T23:32:16.339Z,18.70
2018-08-18T23:34:45.470Z,18.50
2018-08-18T23:37:19.476Z,18.40
2018-08-18T23:39:53.073Z,18.20
2018-08-18T23:42:23.930Z,18.10
2018-08-18T23:44:53.357Z,18.00
2018-08-18T23:47:22.804Z,17.80
2018-08-18T23:49:52.383Z,17.70
2018-08-18T23:52:21.732Z,17.60
2018-08-18T23:54:56.905Z,17.60
2018-08-18T23:57:27.356Z,17.50
2018-08-18T23:59:56.698Z,17.40
